createdAt,value
2023-04-06T00:01:34.238Z,4.19
2023-04-06T00:04:03.939Z,4.10
2023-04-06T00:06:33.540Z,4.14
2023-04-06T00:09:03.441Z,4.24
2023-04-06T00:11:32.796Z,4.26
2023-04-06T00:14:02.595Z,4.20
2023-04-06T00:16:31.894Z,4.24
2023-04-06T00:19:01.156Z,4.27
2023-04-06T00:21:32.323Z,4.27
2023-04-06T00:24:02.090Z,4.31
2023-04-06T00:26:31.352Z,4.29
2023-04-06T00:29:01.331Z,4.37
2023-04-06T00:31:31.555Z,4.36
2023-04-06T00:34:00.964Z,4.37
2023-04-06T00:36:31.152Z,4.37
2023-04-06T00:39:00.718Z,4.34
2023-04-06T00:41:30.376Z,4.32
2023-04-06T00:43:59.749Z,4.33
2023-04-06T00:46:29.159Z,4.32
2023-04-06T00:48:59.245Z,4.36
2023-04-06T00:51:28.831Z,4.32
2023-04-06T00:53:58.519Z,4.31
2023-04-06T00:56:28.521Z,4.33
2023-04-06T00:58:58.563Z,4.37
2023-04-06T01:01:29.710Z,4.30
2023-04-06T01:04:03.276Z,4.27
2023-04-06T01:06:34.224Z,4.28
2023-04-06T01:09:04.273Z,4.27
2023-04-06T01:11:33.599Z,4.23
2023-04-06T01:14:04.239Z,4.21
2023-04-06T01:16:38.423Z,4.25
2023-04-06T01:19:12.677Z,4.23
2023-04-06T01:21:44.469Z,4.19
2023-04-06T01:24:34.509Z,4.17
2023-04-06T01:27:14.949Z,4.20
2023-04-06T01:29:49.246Z,4.19
2023-04-06T01:32:20.451Z,4.19
2023-04-06T01:34:52.053Z,4.18
2023-04-06T01:37:23.010Z,4.13
2023-04-06T01:39:54.265Z,4.12
2023-04-06T01:42:25.267Z,4.07
2023-04-06T01:44:54.857Z,4.04
2023-04-06T01:47:24.222Z,4.03
2023-04-06T01:49:53.662Z,4.05
2023-04-06T01:52:24.597Z,3.95
2023-04-06T01:54:54.926Z,3.94
2023-04-06T01:57:26.551Z,3.92
2023-04-06T01:59:57.735Z,3.95
2023-04-06T02:02:28.919Z,3.98
2023-04-06T02:05:00.812Z,3.93
2023-04-06T02:07:30.898Z,3.91
2023-04-06T02:10:00.453Z,3.93
2023-04-06T02:12:31.431Z,3.90
2023-04-06T02:15:00.896Z,3.87
2023-04-06T02:17:30.372Z,3.81
2023-04-06T02:20:00.049Z,3.75
2023-04-06T02:22:29.374Z,3.73
2023-04-06T02:24:58.846Z,3.75
2023-04-06T02:27:28.320Z,3.73
2023-04-06T02:29:57.620Z,3.69
2023-04-06T02:32:27.257Z,3.67
2023-04-06T02:34:57.796Z,3.65
2023-04-06T02:37:27.410Z,3.68
2023-04-06T02:39:56.900Z,3.67
2023-04-06T02:42:27.884Z,3.68
2023-04-06T02:44:57.994Z,3.66
2023-04-06T02:47:28.992Z,3.66
2023-04-06T02:49:58.417Z,3.67
2023-04-06T02:52:28.355Z,3.68
2023-04-06T02:54:58.177Z,3.65
2023-04-06T02:57:29.806Z,3.70
2023-04-06T02:59:59.130Z,3.71
2023-04-06T03:02:30.593Z,3.69
2023-04-06T03:05:01.633Z,3.73
2023-04-06T03:07:33.070Z,3.75
2023-04-06T03:10:02.390Z,3.76
2023-04-06T03:12:32.865Z,3.73
2023-04-06T03:15:07.496Z,3.73
2023-04-06T03:17:38.533Z,3.77
2023-04-06T03:20:10.283Z,3.77
2023-04-06T03:22:39.991Z,3.81
2023-04-06T03:25:11.416Z,3.78
2023-04-06T03:27:41.754Z,3.81
2023-04-06T03:30:13.568Z,3.84
2023-04-06T03:32:42.843Z,3.89
2023-04-06T03:35:12.369Z,3.86
2023-04-06T03:37:41.718Z,3.90
2023-04-06T03:40:11.969Z,3.91
2023-04-06T03:42:41.259Z,3.89
2023-04-06T03:45:14.089Z,3.95
2023-04-06T03:47:45.584Z,3.91
2023-04-06T03:50:15.294Z,3.90
2023-04-06T03:52:46.587Z,3.85
2023-04-06T03:55:16.627Z,3.91
2023-04-06T03:57:46.183Z,3.89
2023-04-06T04:00:16.402Z,3.88
2023-04-06T04:02:46.053Z,3.89
2023-04-06T04:05:16.638Z,3.92
2023-04-06T04:07:47.516Z,3.94
2023-04-06T04:10:17.152Z,3.98
2023-04-06T04:12:46.600Z,3.90
2023-04-06T04:15:16.338Z,3.89
2023-04-06T04:17:47.290Z,3.93
2023-04-06T04:20:17.529Z,3.95
2023-04-06T04:22:47.010Z,4.01
2023-04-06T04:25:16.713Z,4.01
2023-04-06T04:27:47.919Z,4.05
2023-04-06T04:30:17.411Z,4.08
2023-04-06T04:32:46.738Z,4.11
2023-04-06T04:35:17.917Z,4.17
2023-04-06T04:37:47.449Z,4.19
2023-04-06T04:40:18.377Z,4.27
2023-04-06T04:42:49.471Z,4.31
2023-04-06T04:45:20.863Z,4.33
2023-04-06T04:47:50.672Z,4.33
2023-04-06T04:50:20.415Z,4.36
2023-04-06T04:52:51.501Z,4.44
2023-04-06T04:55:25.759Z,4.47
2023-04-06T04:57:56.852Z,4.47
2023-04-06T05:00:27.861Z,4.49
2023-04-06T05:02:59.278Z,4.51
2023-04-06T05:05:30.520Z,4.54
2023-04-06T05:08:00.397Z,4.52
2023-04-06T05:10:43.721Z,4.55
2023-04-06T05:13:13.639Z,4.55
2023-04-06T05:15:43.279Z,4.63
2023-04-06T05:18:33.155Z,4.60
2023-04-06T05:21:02.828Z,4.61
2023-04-06T05:23:33.888Z,4.62
2023-04-06T05:26:04.178Z,4.65
2023-04-06T05:28:35.153Z,4.65
2023-04-06T05:31:04.777Z,4.63
2023-04-06T05:33:36.114Z,4.61
2023-04-06T05:36:08.214Z,4.65
2023-04-06T05:38:39.660Z,4.68
2023-04-06T05:41:10.675Z,4.70
2023-04-06T05:43:41.933Z,4.71
2023-04-06T05:46:11.961Z,4.76
2023-04-06T05:48:42.224Z,4.77
2023-04-06T05:51:12.188Z,4.79
2023-04-06T05:53:43.313Z,4.83
2023-04-06T05:56:12.641Z,4.93
2023-04-06T05:58:42.662Z,4.97
2023-04-06T06:01:12.959Z,5.01
2023-04-06T06:03:43.934Z,5.00
2023-04-06T06:06:13.377Z,5.01
2023-04-06T06:08:50.808Z,4.94
2023-04-06T06:11:20.370Z,5.01
2023-04-06T06:13:49.884Z,4.98
2023-04-06T06:16:20.681Z,4.99
2023-04-06T06:18:50.753Z,5.00
2023-04-06T06:21:20.874Z,5.00
2023-04-06T06:23:51.254Z,5.03
2023-04-06T06:26:22.843Z,4.99
2023-04-06T06:28:52.490Z,5.02
2023-04-06T06:31:23.721Z,4.98
2023-04-06T06:33:53.195Z,4.99
2023-04-06T06:36:23.009Z,5.01
2023-04-06T06:38:52.771Z,5.05
2023-04-06T06:41:23.211Z,5.09
2023-04-06T06:43:52.534Z,5.10
2023-04-06T06:46:23.051Z,5.11
2023-04-06T06:48:52.368Z,5.11
2023-04-06T06:51:21.717Z,5.18
2023-04-06T06:53:51.001Z,5.33
2023-04-06T06:56:20.352Z,5.40
2023-04-06T06:58:50.369Z,5.45
2023-04-06T07:01:19.783Z,5.53
2023-04-06T07:03:49.682Z,5.64
2023-04-06T07:06:18.975Z,5.73
2023-04-06T07:08:49.057Z,5.92
2023-04-06T07:11:18.333Z,6.01
2023-04-06T07:13:47.747Z,6.03
2023-04-06T07:16:17.269Z,6.00
2023-04-06T07:18:47.012Z,6.15
2023-04-06T07:21:16.292Z,6.30
2023-04-06T07:23:45.842Z,6.15
2023-04-06T07:26:15.129Z,6.15
2023-04-06T07:28:44.708Z,6.33
2023-04-06T07:31:14.556Z,6.42
2023-04-06T07:33:44.237Z,6.29
2023-04-06T07:36:13.547Z,6.42
2023-04-06T07:38:43.787Z,6.42
2023-04-06T07:41:13.203Z,6.39
2023-04-06T07:43:43.077Z,6.49
2023-04-06T07:46:12.456Z,6.62
2023-04-06T07:48:42.265Z,6.51
2023-04-06T07:51:13.315Z,6.54
2023-04-06T07:53:43.354Z,6.61
2023-04-06T07:56:13.345Z,6.61
2023-04-06T07:58:42.801Z,6.60
2023-04-06T08:01:12.231Z,6.59
2023-04-06T08:03:42.064Z,6.75
2023-04-06T08:06:11.620Z,6.56
2023-04-06T08:08:41.331Z,6.85
2023-04-06T08:11:11.004Z,7.01
2023-04-06T08:13:40.678Z,6.81
2023-04-06T08:16:09.975Z,6.90
2023-04-06T08:18:39.756Z,6.94
2023-04-06T08:21:09.081Z,6.99
2023-04-06T08:23:38.737Z,7.10
2023-04-06T08:26:08.045Z,7.24
2023-04-06T08:28:37.412Z,7.31
2023-04-06T08:31:07.593Z,7.45
2023-04-06T08:33:37.956Z,7.60
2023-04-06T08:36:11.834Z,7.81
2023-04-06T08:38:42.561Z,7.77
2023-04-06T08:41:12.816Z,7.76
2023-04-06T08:43:48.126Z,7.54
2023-04-06T08:46:19.473Z,7.68
2023-04-06T08:48:52.461Z,8.01
2023-04-06T08:51:21.812Z,8.17
2023-04-06T08:53:52.876Z,8.10
2023-04-06T08:56:26.637Z,8.16
2023-04-06T08:58:57.347Z,8.09
2023-04-06T09:01:28.859Z,8.11
2023-04-06T09:04:01.662Z,7.91
2023-04-06T09:06:31.870Z,8.09
2023-04-06T09:09:01.208Z,8.07
2023-04-06T09:11:30.708Z,8.24
2023-04-06T09:13:59.967Z,8.17
2023-04-06T09:16:29.298Z,8.09
2023-04-06T09:19:03.291Z,8.08
2023-04-06T09:21:32.657Z,7.88
2023-04-06T09:24:02.937Z,7.61
2023-04-06T09:26:33.990Z,7.53
2023-04-06T09:29:04.528Z,7.47
2023-04-06T09:31:34.303Z,7.45
2023-04-06T09:34:04.566Z,7.28
2023-04-06T09:36:35.862Z,7.15
2023-04-06T09:39:06.097Z,7.19
2023-04-06T09:41:37.664Z,7.09
2023-04-06T09:44:11.753Z,7.00
2023-04-06T09:46:58.874Z,7.00
2023-04-06T09:49:15.052Z,7.00
2023-04-06T09:52:02.073Z,7.03
2023-04-06T09:54:32.996Z,6.96
2023-04-06T09:57:17.788Z,6.99
2023-04-06T09:59:59.060Z,7.04
2023-04-06T10:02:51.909Z,7.14
2023-04-06T10:05:39.093Z,7.03
2023-04-06T10:08:11.124Z,6.98
2023-04-06T10:10:40.837Z,6.96
2023-04-06T10:13:12.751Z,6.93
2023-04-06T10:15:42.026Z,7.00
2023-04-06T10:18:11.414Z,7.08
2023-04-06T10:20:58.231Z,7.04
2023-04-06T10:23:40.228Z,7.05
2023-04-06T10:26:12.730Z,6.91
2023-04-06T10:28:42.767Z,6.93
2023-04-06T10:31:12.199Z,6.99
2023-04-06T10:33:42.454Z,6.97
2023-04-06T10:36:13.893Z,7.20
2023-04-06T10:38:43.953Z,7.15
2023-04-06T10:41:14.948Z,7.08
2023-04-06T10:43:45.894Z,6.97
2023-04-06T10:46:15.517Z,7.15
2023-04-06T10:48:51.048Z,7.08
2023-04-06T10:51:21.441Z,7.17
2023-04-06T10:53:51.108Z,7.35
2023-04-06T10:56:23.760Z,7.48
2023-04-06T10:58:53.916Z,7.45
2023-04-06T11:01:25.932Z,7.60
2023-04-06T11:04:00.535Z,7.85
2023-04-06T11:06:33.531Z,8.07
2023-04-06T11:09:03.024Z,7.81
2023-04-06T11:11:32.399Z,7.89
2023-04-06T11:14:02.908Z,7.74
2023-04-06T11:16:34.022Z,7.58
2023-04-06T11:19:04.855Z,7.47
2023-04-06T11:21:46.970Z,7.24
2023-04-06T11:24:24.771Z,7.28
2023-04-06T11:26:59.185Z,7.17
2023-04-06T11:29:30.979Z,7.17
2023-04-06T11:32:05.193Z,7.12
2023-04-06T11:34:39.516Z,7.08
2023-04-06T11:37:13.545Z,7.10
2023-04-06T11:39:52.057Z,7.12
2023-04-06T11:42:25.427Z,7.11
2023-04-06T11:44:58.309Z,7.15
2023-04-06T11:47:35.683Z,7.30
2023-04-06T11:50:15.978Z,7.36
2023-04-06T11:52:45.331Z,7.35
2023-04-06T11:55:19.214Z,7.27
2023-04-06T11:57:48.455Z,7.21
2023-04-06T12:00:19.164Z,7.11
2023-04-06T12:02:50.010Z,7.06
2023-04-06T12:05:19.910Z,7.06
2023-04-06T12:07:49.278Z,7.02
2023-04-06T12:10:18.739Z,7.10
2023-04-06T12:12:48.369Z,7.14
2023-04-06T12:15:17.996Z,7.14
2023-04-06T12:17:47.873Z,7.12
2023-04-06T12:20:25.750Z,7.06
2023-04-06T12:22:48.436Z,6.99
2023-04-06T12:25:19.394Z,7.02
2023-04-06T12:27:48.725Z,7.19
2023-04-06T12:30:18.436Z,7.09
2023-04-06T12:32:50.436Z,7.16
2023-04-06T12:35:18.839Z,7.30
2023-04-06T12:37:48.251Z,7.33
2023-04-06T12:40:18.055Z,7.23
2023-04-06T12:42:47.873Z,7.30
2023-04-06T12:45:17.916Z,7.22
2023-04-06T12:50:46.579Z,7.07
2023-04-06T12:53:16.169Z,7.02
2023-04-06T12:55:45.707Z,7.08
2023-04-06T12:58:15.840Z,7.01
2023-04-06T13:00:45.736Z,7.01
2023-04-06T13:03:15.180Z,6.99
2023-04-06T13:05:49.138Z,6.93
2023-04-06T13:08:19.988Z,6.85
2023-04-06T13:10:50.868Z,6.91
2023-04-06T13:13:24.012Z,6.92
2023-04-06T13:15:54.213Z,6.86
2023-04-06T13:18:24.194Z,6.87
2023-04-06T13:20:53.480Z,6.75
2023-04-06T13:23:22.743Z,6.75
2023-04-06T13:26:08.863Z,6.89
2023-04-06T13:28:39.920Z,6.84
2023-04-06T13:31:10.691Z,6.87
2023-04-06T13:33:41.753Z,6.87
2023-04-06T13:36:11.304Z,6.79
2023-04-06T13:38:40.681Z,6.75
2023-04-06T13:41:10.692Z,6.73
2023-04-06T13:43:40.034Z,6.82
2023-04-06T13:46:09.344Z,6.87
2023-04-06T13:48:38.637Z,6.78
2023-04-06T13:51:15.564Z,6.81
2023-04-06T13:53:44.886Z,6.86
2023-04-06T13:56:14.191Z,6.89
2023-04-06T14:01:46.924Z,6.92
2023-04-06T14:04:16.580Z,6.96
2023-04-06T14:06:47.575Z,6.89
2023-04-06T14:09:16.880Z,7.04
2023-04-06T14:11:46.249Z,7.11
2023-04-06T14:14:15.714Z,7.10
2023-04-06T14:16:47.976Z,7.00
2023-04-06T14:19:19.821Z,7.02
2023-04-06T14:21:49.673Z,6.97
2023-04-06T14:24:20.228Z,6.98
2023-04-06T14:26:49.729Z,6.99
2023-04-06T14:29:19.327Z,7.11
2023-04-06T14:31:50.043Z,7.01
2023-04-06T14:34:40.989Z,7.05
2023-04-06T14:37:12.008Z,7.06
2023-04-06T14:39:41.319Z,7.16
2023-04-06T14:42:10.995Z,7.21
2023-04-06T14:44:41.931Z,7.23
2023-04-06T14:47:14.607Z,7.28
2023-04-06T14:49:43.902Z,7.22
2023-04-06T14:52:13.568Z,7.10
2023-04-06T14:54:42.899Z,7.16
2023-04-06T14:57:12.289Z,7.14
2023-04-06T14:59:41.546Z,7.10
2023-04-06T15:02:11.267Z,7.13
2023-04-06T15:04:41.437Z,7.10
2023-04-06T15:07:12.046Z,7.13
2023-04-06T15:09:41.304Z,7.13
2023-04-06T15:12:10.860Z,7.15
2023-04-06T15:14:40.479Z,7.18
2023-04-06T15:17:10.565Z,7.11
2023-04-06T15:19:39.841Z,7.10
2023-04-06T15:22:09.160Z,7.12
2023-04-06T15:24:38.981Z,7.13
2023-04-06T15:27:08.578Z,7.15
2023-04-06T15:29:38.030Z,7.11
2023-04-06T15:32:09.374Z,7.09
2023-04-06T15:34:38.689Z,7.12
2023-04-06T15:37:08.180Z,7.11
2023-04-06T15:39:37.828Z,7.11
2023-04-06T15:42:07.471Z,7.15
2023-04-06T15:44:36.881Z,7.24
2023-04-06T15:47:06.804Z,7.28
2023-04-06T15:49:36.168Z,7.24
2023-04-06T15:52:05.570Z,7.24
2023-04-06T15:54:36.525Z,7.26
2023-04-06T15:57:05.766Z,7.27
2023-04-06T15:59:35.090Z,7.29
2023-04-06T16:02:04.480Z,7.32
2023-04-06T16:04:33.886Z,7.29
2023-04-06T16:07:03.616Z,7.28
2023-04-06T16:09:33.274Z,7.27
2023-04-06T16:12:02.682Z,7.31
2023-04-06T16:14:32.202Z,7.30
2023-04-06T16:17:02.053Z,7.31
2023-04-06T16:19:31.789Z,7.29
2023-04-06T16:22:01.130Z,7.30
2023-04-06T16:24:30.409Z,7.29
2023-04-06T16:27:00.339Z,7.32
2023-04-06T16:29:31.846Z,7.29
2023-04-06T16:32:02.203Z,7.34
2023-04-06T16:34:35.014Z,7.32
2023-04-06T16:37:04.683Z,7.32
2023-04-06T16:39:34.502Z,7.30
2023-04-06T16:42:04.064Z,7.32
2023-04-06T16:44:33.495Z,7.31
2023-04-06T16:47:02.792Z,7.36
2023-04-06T16:49:32.086Z,7.37
2023-04-06T16:52:03.199Z,7.41
2023-04-06T16:54:34.315Z,7.38
2023-04-06T16:57:05.183Z,7.41
2023-04-06T16:59:35.360Z,7.41
2023-04-06T17:02:04.671Z,7.37
2023-04-06T17:04:34.375Z,7.38
2023-04-06T17:07:03.892Z,7.42
2023-04-06T17:12:03.462Z,7.46
2023-04-06T17:14:32.832Z,7.43
2023-04-06T17:17:03.730Z,7.42
2023-04-06T17:19:33.251Z,7.46
2023-04-06T17:22:03.291Z,7.47
2023-04-06T17:24:32.652Z,7.46
2023-04-06T17:27:02.976Z,7.47
2023-04-06T17:29:32.243Z,7.47
2023-04-06T17:32:01.837Z,7.53
2023-04-06T17:34:31.194Z,7.57
2023-04-06T17:37:00.489Z,7.57
2023-04-06T17:39:29.758Z,7.56
2023-04-06T17:42:00.255Z,7.61
2023-04-06T17:44:29.572Z,7.59
2023-04-06T17:46:59.126Z,7.67
2023-04-06T17:49:28.416Z,7.63
2023-04-06T17:51:58.079Z,7.70
2023-04-06T17:54:27.350Z,7.66
2023-04-06T17:56:57.479Z,7.74
2023-04-06T17:59:27.167Z,7.73
2023-04-06T18:01:56.751Z,7.74
2023-04-06T18:04:26.673Z,7.76
2023-04-06T18:06:56.502Z,7.78
2023-04-06T18:11:57.308Z,7.80
2023-04-06T18:14:27.126Z,7.85
2023-04-06T18:16:56.750Z,7.84
2023-04-06T18:19:27.960Z,7.87
2023-04-06T18:21:57.493Z,7.89
2023-04-06T18:24:41.377Z,7.91
2023-04-06T18:26:58.816Z,7.92
2023-04-06T18:29:29.763Z,7.90
2023-04-06T18:31:59.157Z,7.94
2023-04-06T18:34:30.155Z,7.96
2023-04-06T18:37:01.759Z,7.98
2023-04-06T18:39:31.564Z,8.01
2023-04-06T18:42:01.476Z,8.00
2023-04-06T18:44:34.156Z,8.05
2023-04-06T18:47:03.729Z,8.01
2023-04-06T18:49:34.404Z,8.07
2023-04-06T18:52:08.440Z,8.10
2023-04-06T18:54:37.849Z,8.11
2023-04-06T18:57:07.236Z,8.11
2023-04-06T18:59:36.645Z,8.15
2023-04-06T19:02:06.704Z,8.14
2023-04-06T19:04:36.212Z,8.16
2023-04-06T19:07:06.588Z,8.24
2023-04-06T19:09:36.023Z,8.27
2023-04-06T19:12:05.560Z,8.28
2023-04-06T19:14:34.933Z,8.34
2023-04-06T19:17:04.446Z,8.35
2023-04-06T19:19:34.338Z,8.37
2023-04-06T19:22:03.830Z,8.37
2023-04-06T19:24:33.397Z,8.39
2023-04-06T19:27:03.349Z,8.38
2023-04-06T19:29:32.772Z,8.38
2023-04-06T19:32:02.691Z,8.39
2023-04-06T19:34:32.416Z,8.39
2023-04-06T19:37:02.719Z,8.39
2023-04-06T19:39:32.160Z,8.39
2023-04-06T19:42:01.626Z,8.35
2023-04-06T19:44:31.029Z,8.38
2023-04-06T19:47:00.941Z,8.34
2023-04-06T19:49:30.277Z,8.28
2023-04-06T19:52:00.046Z,8.27
2023-04-06T19:54:29.362Z,8.28
2023-04-06T19:56:58.737Z,8.28
2023-04-06T19:59:28.286Z,8.27
2023-04-06T20:01:58.336Z,8.28
2023-04-06T20:04:27.965Z,8.24
2023-04-06T20:06:57.332Z,8.24
2023-04-06T20:09:27.220Z,8.25
2023-04-06T20:11:56.706Z,8.25
2023-04-06T20:14:26.546Z,8.25
2023-04-06T20:16:56.239Z,8.27
2023-04-06T20:19:25.857Z,8.27
2023-04-06T20:21:55.765Z,8.25
2023-04-06T20:24:25.216Z,8.20
2023-04-06T20:26:54.756Z,8.24
2023-04-06T20:29:24.000Z,8.24
2023-04-06T20:31:53.667Z,8.20
2023-04-06T20:34:24.607Z,8.19
2023-04-06T20:36:53.934Z,8.22
2023-04-06T20:39:24.121Z,8.18
2023-04-06T20:41:53.710Z,8.18
2023-04-06T20:44:24.628Z,8.15
2023-04-06T20:46:54.204Z,8.15
2023-04-06T20:49:24.192Z,8.16
2023-04-06T20:51:53.651Z,8.09
2023-04-06T20:54:23.091Z,8.12
2023-04-06T20:56:52.457Z,8.09
2023-04-06T20:59:21.733Z,8.04
2023-04-06T21:01:52.866Z,8.00
2023-04-06T21:04:23.199Z,7.97
2023-04-06T21:06:53.790Z,8.06
2023-04-06T21:09:24.882Z,8.05
2023-04-06T21:11:54.847Z,8.04
2023-04-06T21:14:24.613Z,8.02
2023-04-06T21:16:55.851Z,8.02
2023-04-06T21:19:25.784Z,8.02
2023-04-06T21:21:55.874Z,7.97
2023-04-06T21:24:25.949Z,7.93
2023-04-06T21:26:55.270Z,7.93
2023-04-06T21:29:24.778Z,7.92
2023-04-06T21:31:55.624Z,7.92
2023-04-06T21:34:25.153Z,7.86
2023-04-06T21:36:54.481Z,7.85
2023-04-06T21:39:25.590Z,7.82
2023-04-06T21:41:54.837Z,7.76
2023-04-06T21:44:24.360Z,7.74
2023-04-06T21:46:53.739Z,7.74
2023-04-06T21:49:23.151Z,7.69
2023-04-06T21:51:52.461Z,7.62
2023-04-06T21:54:21.811Z,7.60
2023-04-06T21:56:51.153Z,7.56
2023-04-06T21:59:20.818Z,7.47
2023-04-06T22:01:50.279Z,7.54
2023-04-06T22:04:20.479Z,7.54
2023-04-06T22:06:51.082Z,7.53
2023-04-06T22:09:20.482Z,7.53
2023-04-06T22:11:49.854Z,7.43
2023-04-06T22:14:19.969Z,7.45
2023-04-06T22:16:49.429Z,7.46
2023-04-06T22:19:18.773Z,7.44
2023-04-06T22:21:48.158Z,7.39
2023-04-06T22:24:18.089Z,7.30
2023-04-06T22:26:47.648Z,7.33
2023-04-06T22:29:17.585Z,7.33
2023-04-06T22:31:47.386Z,7.35
2023-04-06T22:34:17.120Z,7.33
2023-04-06T22:36:46.938Z,7.31
2023-04-06T22:39:16.478Z,7.28
2023-04-06T22:41:46.011Z,7.21
2023-04-06T22:44:15.707Z,7.19
2023-04-06T22:46:45.504Z,7.16
2023-04-06T22:49:14.779Z,7.21
2023-04-06T22:51:44.464Z,7.19
2023-04-06T22:54:14.345Z,7.19
2023-04-06T22:56:43.960Z,7.22
2023-04-06T22:59:13.253Z,7.18
2023-04-06T23:01:42.633Z,7.16
2023-04-06T23:04:12.140Z,7.12
2023-04-06T23:06:41.502Z,7.10
2023-04-06T23:09:10.768Z,7.15
2023-04-06T23:11:40.378Z,7.16
2023-04-06T23:14:09.669Z,7.11
2023-04-06T23:16:39.180Z,7.09
2023-04-06T23:19:08.421Z,7.10
2023-04-06T23:21:37.736Z,7.11
2023-04-06T23:24:07.347Z,7.11
2023-04-06T23:26:36.616Z,7.11
2023-04-06T23:29:05.991Z,7.15
2023-04-06T23:31:35.284Z,7.11
2023-04-06T23:34:04.755Z,7.12
2023-04-06T23:36:34.417Z,7.06
2023-04-06T23:39:03.722Z,6.99
2023-04-06T23:41:33.334Z,6.91
2023-04-06T23:44:02.957Z,6.85
2023-04-06T23:46:32.270Z,6.81
2023-04-06T23:49:01.778Z,6.80
2023-04-06T23:51:31.833Z,6.78
2023-04-06T23:54:01.425Z,6.74
2023-04-06T23:56:30.983Z,6.81
2023-04-06T23:59:00.570Z,6.84
